createdAt,value
2023-02-19T00:00:19.254Z,102185.50
2023-02-19T00:02:45.470Z,102183.56
2023-02-19T00:05:11.737Z,102173.97
2023-02-19T00:07:38.055Z,102176.13
2023-02-19T00:10:04.280Z,102180.22
2023-02-19T00:12:30.449Z,102193.31
2023-02-19T00:14:56.610Z,102186.34
2023-02-19T00:17:22.793Z,102190.19
2023-02-19T00:19:48.961Z,102190.19
2023-02-19T00:22:15.176Z,102189.38
2023-02-19T00:24:41.411Z,102182.84
2023-02-19T00:27:07.637Z,102176.38
2023-02-19T00:29:33.809Z,102163.03
2023-02-19T00:32:00.184Z,102168.97
2023-02-19T00:34:26.449Z,102175.75
2023-02-19T00:36:52.688Z,102175.84
2023-02-19T00:39:18.996Z,102175.75
2023-02-19T00:41:45.176Z,102169.75
2023-02-19T00:44:11.384Z,102163.66
2023-02-19T00:46:37.641Z,102169.75
2023-02-19T00:49:03.841Z,102171.66
2023-02-19T00:51:30.069Z,102150.81
2023-02-19T00:53:56.346Z,102157.41
2023-02-19T00:56:22.575Z,102159.34
2023-02-19T00:58:48.770Z,102156.50
2023-02-19T01:01:15.007Z,102159.81
2023-02-19T01:03:41.266Z,102148.91
2023-02-19T01:06:07.559Z,102136.13
2023-02-19T01:08:33.776Z,102129.22
2023-02-19T01:10:59.943Z,102139.50
2023-02-19T01:13:26.132Z,102145.72
2023-02-19T01:15:52.324Z,102148.88
2023-02-19T01:18:18.664Z,102148.25
2023-02-19T01:20:44.875Z,102145.13
2023-02-19T01:23:11.040Z,102142.25
2023-02-19T01:25:37.292Z,102146.50
2023-02-19T01:28:03.488Z,102144.34
2023-02-19T01:30:29.722Z,102145.03
2023-02-19T01:32:55.946Z,102150.63
2023-02-19T01:35:22.178Z,102155.06
2023-02-19T01:37:48.396Z,102154.97
2023-02-19T01:40:14.596Z,102157.63
2023-02-19T01:42:40.751Z,102155.34
2023-02-19T01:45:06.964Z,102157.78
2023-02-19T01:47:33.158Z,102164.78
2023-02-19T01:49:59.356Z,102162.84
2023-02-19T01:52:25.583Z,102147.34
2023-02-19T01:54:51.789Z,102151.41
2023-02-19T01:57:17.988Z,102170.97
2023-02-19T01:59:44.168Z,102161.81
2023-02-19T02:02:10.405Z,102160.56
2023-02-19T02:04:36.629Z,102171.16
2023-02-19T02:07:02.822Z,102162.94
2023-02-19T02:09:29.090Z,102161.19
2023-02-19T02:11:55.279Z,102158.38
2023-02-19T02:14:21.443Z,102162.47
2023-02-19T02:16:47.679Z,102159.88
2023-02-19T02:19:13.901Z,102157.06
2023-02-19T02:21:40.070Z,102155.34
2023-02-19T02:24:06.323Z,102150.09
2023-02-19T02:26:32.552Z,102152.97
2023-02-19T02:28:58.743Z,102150.97
2023-02-19T02:31:24.993Z,102154.47
2023-02-19T02:33:51.216Z,102149.84
2023-02-19T02:36:17.486Z,102155.97
2023-02-19T02:38:43.658Z,102161.03
2023-02-19T02:41:10.123Z,102163.81
2023-02-19T02:43:36.531Z,102167.72
2023-02-19T02:46:02.781Z,102165.19
2023-02-19T02:48:29.020Z,102157.25
2023-02-19T02:50:55.231Z,102155.25
2023-02-19T02:53:21.446Z,102155.25
2023-02-19T02:55:47.657Z,102150.78
2023-02-19T02:58:13.885Z,102155.09
2023-02-19T03:00:40.035Z,102154.28
2023-02-19T03:03:06.240Z,102151.56
2023-02-19T03:05:32.415Z,102152.44
2023-02-19T03:07:58.601Z,102161.69
2023-02-19T03:10:24.757Z,102159.69
2023-02-19T03:12:50.922Z,102164.72
2023-02-19T03:15:17.136Z,102168.63
2023-02-19T03:17:43.342Z,102158.13
2023-02-19T03:20:09.546Z,102166.81
2023-02-19T03:22:35.788Z,102155.97
2023-02-19T03:25:02.016Z,102159.44
2023-02-19T03:27:28.220Z,102149.59
2023-02-19T03:29:54.432Z,102152.53
2023-02-19T03:32:20.742Z,102147.91
2023-02-19T03:34:46.994Z,102157.16
2023-02-19T03:37:13.183Z,102152.63
2023-02-19T03:39:39.393Z,102158.13
2023-02-19T03:42:05.635Z,102153.94
2023-02-19T03:44:31.812Z,102156.56
2023-02-19T03:46:58.034Z,102158.47
2023-02-19T03:49:24.260Z,102160.25
2023-02-19T03:51:50.485Z,102152.34
2023-02-19T03:54:16.652Z,102145.91
2023-02-19T03:56:42.816Z,102145.13
2023-02-19T03:59:08.991Z,102156.75
2023-02-19T04:01:35.152Z,102148.44
2023-02-19T04:04:01.319Z,102150.44
2023-02-19T04:06:27.526Z,102160.31
2023-02-19T04:08:53.730Z,102161.88
2023-02-19T04:11:19.970Z,102165.56
2023-02-19T04:13:46.184Z,102170.59
2023-02-19T04:16:12.414Z,102178.34
2023-02-19T04:18:38.614Z,102182.88
2023-02-19T04:21:04.784Z,102176.56
2023-02-19T04:23:30.992Z,102177.69
2023-02-19T04:25:57.209Z,102174.84
2023-02-19T04:28:23.393Z,102180.94
2023-02-19T04:30:49.569Z,102189.31
2023-02-19T04:33:15.798Z,102178.41
2023-02-19T04:35:42.055Z,102181.19
2023-02-19T04:38:08.276Z,102182.16
2023-02-19T04:40:34.485Z,102195.94
2023-02-19T04:43:00.675Z,102199.31
2023-02-19T04:45:26.835Z,102200.28
2023-02-19T04:47:53.035Z,102205.63
2023-02-19T04:50:19.260Z,102192.09
2023-02-19T04:52:45.514Z,102194.09
2023-02-19T04:55:11.726Z,102197.16
2023-02-19T04:57:37.972Z,102212.19
2023-02-19T05:00:04.158Z,102205.91
2023-02-19T05:02:30.323Z,102224.56
2023-02-19T05:04:56.535Z,102228.19
2023-02-19T05:07:22.769Z,102229.00
2023-02-19T05:09:48.923Z,102236.03
2023-02-19T05:12:15.085Z,102218.31
2023-02-19T05:14:41.305Z,102223.88
2023-02-19T05:17:07.539Z,102222.94
2023-02-19T05:19:33.742Z,102230.91
2023-02-19T05:21:59.967Z,102235.34
2023-02-19T05:24:26.156Z,102235.97
2023-02-19T05:26:52.330Z,102236.03
2023-02-19T05:29:18.492Z,102241.47
2023-02-19T05:31:44.739Z,102249.41
2023-02-19T05:34:10.973Z,102248.38
2023-02-19T05:36:37.154Z,102250.91
2023-02-19T05:39:03.321Z,102248.47
2023-02-19T05:41:29.505Z,102248.75
2023-02-19T05:43:55.696Z,102265.66
2023-02-19T05:46:21.936Z,102263.81
2023-02-19T05:48:48.196Z,102265.75
2023-02-19T05:51:14.433Z,102264.91
2023-02-19T05:53:40.607Z,102261.31
2023-02-19T05:56:06.847Z,102268.53
2023-02-19T05:58:33.037Z,102261.22
2023-02-19T06:00:59.244Z,102261.31
2023-02-19T06:03:25.595Z,102261.69
2023-02-19T06:05:51.809Z,102266.91
2023-02-19T06:08:18.119Z,102258.78
2023-02-19T06:10:44.286Z,102263.13
2023-02-19T06:13:10.489Z,102261.22
2023-02-19T06:15:36.724Z,102270.22
2023-02-19T06:18:02.897Z,102265.13
2023-02-19T06:20:29.064Z,102267.75
2023-02-19T06:22:55.265Z,102268.81
2023-02-19T06:25:21.434Z,102261.47
2023-02-19T06:27:47.643Z,102262.19
2023-02-19T06:30:13.914Z,102268.44
2023-02-19T06:32:40.087Z,102280.88
2023-02-19T06:35:06.261Z,102273.69
2023-02-19T06:37:32.477Z,102275.47
2023-02-19T06:39:58.727Z,102288.28
2023-02-19T06:42:24.930Z,102281.28
2023-02-19T06:44:51.135Z,102284.00
2023-02-19T06:47:17.334Z,102281.28
2023-02-19T06:49:43.578Z,102285.66
2023-02-19T06:52:09.751Z,102297.81
2023-02-19T06:54:35.984Z,102285.75
2023-02-19T06:57:02.157Z,102291.88
2023-02-19T06:59:28.351Z,102291.56
2023-02-19T07:01:54.512Z,102294.44
2023-02-19T07:04:20.704Z,102310.78
2023-02-19T07:06:46.927Z,102310.69
2023-02-19T07:09:13.183Z,102318.47
2023-02-19T07:11:39.361Z,102317.59
2023-02-19T07:14:05.606Z,102313.88
2023-02-19T07:16:31.975Z,102318.25
2023-02-19T07:18:58.234Z,102314.97
2023-02-19T07:21:24.459Z,102319.59
2023-02-19T07:23:50.674Z,102335.44
2023-02-19T07:26:16.857Z,102331.63
2023-02-19T07:28:43.100Z,102332.41
2023-02-19T07:31:09.859Z,102334.06
2023-02-19T07:33:36.239Z,102329.63
2023-02-19T07:36:02.416Z,102338.69
2023-02-19T07:38:28.652Z,102350.47
2023-02-19T07:40:54.878Z,102354.94
2023-02-19T07:43:21.066Z,102367.44
2023-02-19T07:45:47.280Z,102375.56
2023-02-19T07:48:13.481Z,102368.31
2023-02-19T07:50:39.667Z,102362.03
2023-02-19T07:53:05.835Z,102361.59
2023-02-19T07:55:31.989Z,102375.75
2023-02-19T07:57:58.160Z,102363.00
2023-02-19T08:00:24.371Z,102372.00
2023-02-19T08:02:50.618Z,102370.69
2023-02-19T08:05:16.844Z,102369.81
2023-02-19T08:07:43.070Z,102383.81
2023-02-19T08:10:09.294Z,102378.75
2023-02-19T08:12:35.491Z,102384.41
2023-02-19T08:15:01.698Z,102386.16
2023-02-19T08:17:27.905Z,102389.72
2023-02-19T08:19:54.150Z,102385.28
2023-02-19T08:22:20.369Z,102395.06
2023-02-19T08:24:46.592Z,102393.06
2023-02-19T08:27:12.811Z,102388.78
2023-02-19T08:29:39.046Z,102390.25
2023-02-19T08:32:05.330Z,102396.38
2023-02-19T08:34:31.512Z,102392.91
2023-02-19T08:36:57.724Z,102400.69
2023-02-19T08:39:23.898Z,102398.78
2023-02-19T08:41:50.070Z,102399.81
2023-02-19T08:44:16.301Z,102395.09
2023-02-19T08:46:42.504Z,102392.81
2023-02-19T08:49:08.690Z,102392.41
2023-02-19T08:51:34.890Z,102396.16
2023-02-19T08:54:01.095Z,102397.88
2023-02-19T08:56:27.278Z,102394.81
2023-02-19T08:58:53.469Z,102399.72
2023-02-19T09:01:19.693Z,102392.69
2023-02-19T09:03:45.908Z,102397.22
2023-02-19T09:06:12.290Z,102399.66
2023-02-19T09:08:38.619Z,102406.78
2023-02-19T09:11:04.863Z,102401.56
2023-02-19T09:13:31.092Z,102399.56
2023-02-19T09:15:57.401Z,102399.41
2023-02-19T09:18:23.620Z,102411.81
2023-02-19T09:20:49.843Z,102416.13
2023-02-19T09:23:16.044Z,102419.88
2023-02-19T09:25:42.269Z,102414.16
2023-02-19T09:28:08.431Z,102410.47
2023-02-19T09:30:34.663Z,102412.94
2023-02-19T09:33:00.955Z,102414.28
2023-02-19T09:35:27.159Z,102410.94
2023-02-19T09:37:53.324Z,102418.06
2023-02-19T09:40:19.476Z,102412.16
2023-02-19T09:42:45.690Z,102410.81
2023-02-19T09:45:11.900Z,102412.34
2023-02-19T09:47:38.079Z,102417.69
2023-02-19T09:50:04.254Z,102431.94
2023-02-19T09:52:30.463Z,102414.66
2023-02-19T09:54:57.261Z,102410.50
2023-02-19T09:57:23.531Z,102417.13
2023-02-19T09:59:49.713Z,102421.84
2023-02-19T10:02:15.919Z,102420.81
2023-02-19T10:04:42.192Z,102429.75
2023-02-19T10:07:08.405Z,102435.81
2023-02-19T10:09:34.591Z,102428.56
2023-02-19T10:12:00.816Z,102429.41
2023-02-19T10:14:27.053Z,102427.09
2023-02-19T10:16:53.253Z,102436.78
2023-02-19T10:19:19.504Z,102436.66
2023-02-19T10:21:45.684Z,102439.94
2023-02-19T10:24:11.909Z,102436.19
2023-02-19T10:26:38.152Z,102446.34
2023-02-19T10:29:04.342Z,102443.13
2023-02-19T10:31:30.634Z,102437.06
2023-02-19T10:33:56.874Z,102448.47
2023-02-19T10:36:23.079Z,102453.22
2023-02-19T10:38:49.248Z,102437.94
2023-02-19T10:41:15.428Z,102454.28
2023-02-19T10:43:41.600Z,102462.56
2023-02-19T10:46:07.828Z,102452.22
2023-02-19T10:48:34.036Z,102452.25
2023-02-19T10:51:00.242Z,102459.19
2023-02-19T10:53:26.460Z,102457.81
2023-02-19T10:55:52.685Z,102473.75
2023-02-19T10:58:18.879Z,102484.00
2023-02-19T11:00:45.084Z,102488.03
2023-02-19T11:03:11.306Z,102486.25
2023-02-19T11:05:37.536Z,102492.66
2023-02-19T11:08:03.700Z,102497.22
2023-02-19T11:10:29.874Z,102500.09
2023-02-19T11:12:56.042Z,102494.53
2023-02-19T11:15:22.218Z,102490.00
2023-02-19T11:17:48.432Z,102483.22
2023-02-19T11:20:14.600Z,102500.69
2023-02-19T11:22:40.781Z,102486.81
2023-02-19T11:25:06.937Z,102492.84
2023-02-19T11:27:33.104Z,102498.34
2023-02-19T11:29:59.338Z,102502.06
2023-02-19T11:32:25.665Z,102500.19
2023-02-19T11:34:51.987Z,102491.47
2023-02-19T11:37:18.184Z,102493.78
2023-02-19T11:39:44.346Z,102503.09
2023-02-19T11:42:10.546Z,102500.28
2023-02-19T11:44:36.742Z,102515.06
2023-02-19T11:47:03.022Z,102501.84
2023-02-19T11:49:29.185Z,102498.72
2023-02-19T11:51:55.397Z,102500.44
2023-02-19T11:54:21.584Z,102511.63
2023-02-19T11:56:47.771Z,102513.34
2023-02-19T11:59:13.948Z,102505.75
2023-02-19T12:01:40.124Z,102501.09
2023-02-19T12:04:06.309Z,102490.09
2023-02-19T12:06:32.472Z,102483.00
2023-02-19T12:08:58.668Z,102482.19
2023-02-19T12:11:24.827Z,102490.97
2023-02-19T12:13:51.094Z,102496.34
2023-02-19T12:16:17.365Z,102498.53
2023-02-19T12:18:43.610Z,102501.81
2023-02-19T12:21:09.988Z,102506.94
2023-02-19T12:23:36.328Z,102498.09
2023-02-19T12:26:02.537Z,102495.19
2023-02-19T12:28:28.732Z,102486.56
2023-02-19T12:30:54.942Z,102491.47
2023-02-19T12:33:21.189Z,102484.47
2023-02-19T12:35:47.416Z,102481.06
2023-02-19T12:38:13.621Z,102491.56
2023-02-19T12:40:39.833Z,102488.19
2023-02-19T12:43:06.016Z,102473.22
2023-02-19T12:45:32.171Z,102486.97
2023-02-19T12:47:58.387Z,102489.53
2023-02-19T12:50:24.570Z,102479.34
2023-02-19T12:52:50.771Z,102484.69
2023-02-19T12:55:17.173Z,102484.56
2023-02-19T12:57:43.346Z,102475.00
2023-02-19T13:00:09.547Z,102480.22
2023-02-19T13:02:35.768Z,102477.03
2023-02-19T13:05:01.954Z,102467.16
2023-02-19T13:07:28.134Z,102462.22
2023-02-19T13:09:54.312Z,102467.03
2023-02-19T13:12:20.528Z,102456.25
2023-02-19T13:14:46.702Z,102454.22
2023-02-19T13:17:12.938Z,102442.03
2023-02-19T13:19:39.207Z,102439.50
2023-02-19T13:22:05.428Z,102431.94
2023-02-19T13:24:31.614Z,102427.75
2023-02-19T13:26:57.820Z,102426.75
2023-02-19T13:29:24.000Z,102429.00
2023-02-19T13:31:50.319Z,102423.50
2023-02-19T13:34:16.564Z,102419.97
2023-02-19T13:36:42.778Z,102427.31
2023-02-19T13:39:08.960Z,102428.84
2023-02-19T13:41:35.138Z,102421.53
2023-02-19T13:44:01.349Z,102413.09
2023-02-19T13:46:27.535Z,102416.72
2023-02-19T13:48:53.777Z,102416.88
2023-02-19T13:51:20.002Z,102403.63
2023-02-19T13:53:46.190Z,102407.25
2023-02-19T13:56:12.391Z,102395.28
2023-02-19T13:58:38.573Z,102393.03
2023-02-19T14:01:04.781Z,102385.47
2023-02-19T14:03:31.001Z,102380.28
2023-02-19T14:05:57.254Z,102379.66
2023-02-19T14:08:23.470Z,102374.97
2023-02-19T14:10:49.692Z,102375.81
2023-02-19T14:13:15.910Z,102373.94
2023-02-19T14:15:42.140Z,102371.34
2023-02-19T14:18:08.344Z,102372.75
2023-02-19T14:20:34.550Z,102371.31
2023-02-19T14:23:00.771Z,102378.53
2023-02-19T14:25:27.011Z,102380.84
2023-02-19T14:27:53.204Z,102384.44
2023-02-19T14:30:19.451Z,102395.59
2023-02-19T14:32:51.006Z,102401.81
2023-02-19T14:35:17.435Z,102400.28
2023-02-19T14:37:43.604Z,102419.25
2023-02-19T14:40:09.768Z,102413.38
2023-02-19T14:42:35.978Z,102420.88
2023-02-19T14:45:02.144Z,102419.19
2023-02-19T14:47:28.329Z,102421.03
2023-02-19T14:49:54.501Z,102413.84
2023-02-19T14:52:20.712Z,102420.34
2023-02-19T14:54:46.875Z,102419.88
2023-02-19T14:57:13.172Z,102428.25
2023-02-19T14:59:39.332Z,102420.22
2023-02-19T15:02:05.548Z,102431.28
2023-02-19T15:04:31.820Z,102439.97
2023-02-19T15:06:58.021Z,102436.34
2023-02-19T15:09:24.281Z,102428.28
2023-02-19T15:11:50.500Z,102438.41
2023-02-19T15:14:16.737Z,102441.03
2023-02-19T15:16:42.925Z,102445.63
2023-02-19T15:19:09.135Z,102441.31
2023-02-19T15:21:35.370Z,102448.72
2023-02-19T15:24:01.549Z,102443.06
2023-02-19T15:26:27.708Z,102437.84
2023-02-19T15:28:53.880Z,102433.66
2023-02-19T15:31:20.162Z,102436.38
2023-02-19T15:33:46.474Z,102427.25
2023-02-19T15:36:12.717Z,102438.25
2023-02-19T15:38:38.939Z,102434.53
2023-02-19T15:41:05.295Z,102437.19
2023-02-19T15:43:31.470Z,102438.50
2023-02-19T15:45:57.668Z,102441.34
2023-02-19T15:48:23.905Z,102440.50
2023-02-19T15:50:50.093Z,102437.22
2023-02-19T15:53:16.304Z,102425.25
2023-02-19T15:55:42.524Z,102422.72
2023-02-19T15:58:08.769Z,102417.25
2023-02-19T16:00:34.994Z,102424.38
2023-02-19T16:03:01.240Z,102427.97
2023-02-19T16:05:27.482Z,102411.75
2023-02-19T16:07:53.776Z,102419.03
2023-02-19T16:10:19.965Z,102426.59
2023-02-19T16:12:46.142Z,102422.91
2023-02-19T16:15:12.398Z,102422.63
2023-02-19T16:17:38.570Z,102431.56
2023-02-19T16:20:04.780Z,102432.31
2023-02-19T16:22:31.156Z,102430.38
2023-02-19T16:24:57.345Z,102435.72
2023-02-19T16:27:23.494Z,102429.06
2023-02-19T16:29:49.653Z,102422.94
2023-02-19T16:32:15.949Z,102423.53
2023-02-19T16:34:42.170Z,102415.63
2023-02-19T16:37:08.398Z,102402.72
2023-02-19T16:39:34.610Z,102408.47
2023-02-19T16:42:00.791Z,102405.16
2023-02-19T16:44:26.960Z,102408.50
2023-02-19T16:46:53.140Z,102404.31
2023-02-19T16:49:19.318Z,102408.56
2023-02-19T16:51:45.502Z,102405.47
2023-02-19T16:54:11.657Z,102410.19
2023-02-19T16:56:37.806Z,102412.22
2023-02-19T16:59:03.980Z,102413.31
2023-02-19T17:01:30.215Z,102417.47
2023-02-19T17:03:56.525Z,102415.78
2023-02-19T17:06:22.726Z,102422.38
2023-02-19T17:08:48.927Z,102421.00
2023-02-19T17:11:15.126Z,102421.78
2023-02-19T17:13:41.276Z,102424.59
2023-02-19T17:16:07.451Z,102426.34
2023-02-19T17:18:33.623Z,102436.69
2023-02-19T17:20:59.835Z,102442.41
2023-02-19T17:23:26.008Z,102452.75
2023-02-19T17:25:52.242Z,102455.84
2023-02-19T17:28:18.460Z,102467.09
2023-02-19T17:30:44.666Z,102471.75
2023-02-19T17:33:10.878Z,102472.63
2023-02-19T17:35:37.050Z,102473.22
2023-02-19T17:38:03.249Z,102468.38
2023-02-19T17:40:33.864Z,102471.50
2023-02-19T17:43:00.230Z,102462.41
2023-02-19T17:45:26.449Z,102469.69
2023-02-19T17:47:52.660Z,102468.97
2023-02-19T17:50:18.886Z,102479.13
2023-02-19T17:52:45.079Z,102477.47
2023-02-19T17:55:11.275Z,102481.84
2023-02-19T17:57:37.444Z,102482.09
2023-02-19T18:00:03.607Z,102478.00
2023-02-19T18:02:29.810Z,102487.00
2023-02-19T18:04:56.000Z,102488.84
2023-02-19T18:07:22.167Z,102503.28
2023-02-19T18:09:48.367Z,102503.09
2023-02-19T18:12:14.592Z,102506.19
2023-02-19T18:14:40.804Z,102506.50
2023-02-19T18:17:06.966Z,102517.63
2023-02-19T18:19:33.133Z,102526.81
2023-02-19T18:21:59.309Z,102528.81
2023-02-19T18:24:25.485Z,102535.44
2023-02-19T18:26:51.711Z,102539.84
2023-02-19T18:29:17.911Z,102545.16
2023-02-19T18:31:44.159Z,102549.72
2023-02-19T18:34:10.464Z,102543.41
2023-02-19T18:36:36.684Z,102547.16
2023-02-19T18:39:02.913Z,102539.22
2023-02-19T18:41:29.071Z,102536.59
2023-02-19T18:43:55.229Z,102551.78
2023-02-19T18:46:21.438Z,102536.59
2023-02-19T18:48:47.683Z,102539.44
2023-02-19T18:51:14.028Z,102543.03
2023-02-19T18:53:40.292Z,102529.41
2023-02-19T18:56:06.495Z,102527.91
2023-02-19T18:58:32.722Z,102536.09
2023-02-19T19:00:58.886Z,102530.84
2023-02-19T19:03:25.107Z,102541.16
2023-02-19T19:05:51.258Z,102551.19
2023-02-19T19:08:17.473Z,102550.25
2023-02-19T19:10:43.636Z,102552.25
2023-02-19T19:13:09.834Z,102547.00
2023-02-19T19:15:36.093Z,102559.75
2023-02-19T19:18:02.323Z,102552.50
2023-02-19T19:20:28.555Z,102544.63
2023-02-19T19:22:54.770Z,102537.63
2023-02-19T19:25:20.945Z,102539.69
2023-02-19T19:27:47.118Z,102536.28
2023-02-19T19:30:13.333Z,102538.53
2023-02-19T19:32:40.083Z,102536.63
2023-02-19T19:35:06.371Z,102539.50
2023-02-19T19:37:32.587Z,102545.69
2023-02-19T19:39:58.748Z,102549.19
2023-02-19T19:42:24.925Z,102550.31
2023-02-19T19:44:51.119Z,102546.72
2023-02-19T19:47:17.352Z,102547.75
2023-02-19T19:49:43.512Z,102549.59
2023-02-19T19:52:09.728Z,102545.13
2023-02-19T19:54:35.936Z,102542.59
2023-02-19T19:57:02.119Z,102540.13
2023-02-19T19:59:28.321Z,102543.88
2023-02-19T20:01:54.529Z,102551.94
2023-02-19T20:04:20.755Z,102547.16
2023-02-19T20:06:47.000Z,102550.88
2023-02-19T20:09:13.177Z,102546.72
2023-02-19T20:11:39.390Z,102548.59
2023-02-19T20:14:05.566Z,102556.75
2023-02-19T20:16:31.762Z,102545.13
2023-02-19T20:18:57.919Z,102560.56
2023-02-19T20:21:24.093Z,102548.06
2023-02-19T20:23:50.294Z,102557.22
2023-02-19T20:26:16.457Z,102555.56
2023-02-19T20:28:42.602Z,102564.38
2023-02-19T20:31:09.063Z,102560.16
2023-02-19T20:33:35.264Z,102564.69
2023-02-19T20:36:01.465Z,102566.66
2023-02-19T20:38:27.682Z,102569.38
2023-02-19T20:40:53.907Z,102559.69
2023-02-19T20:43:20.121Z,102554.44
2023-02-19T20:45:46.293Z,102557.75
2023-02-19T20:48:12.450Z,102557.09
2023-02-19T20:50:38.657Z,102566.22
2023-02-19T20:53:04.904Z,102557.97
2023-02-19T20:55:31.124Z,102549.06
2023-02-19T20:57:57.312Z,102551.69
2023-02-19T21:00:23.498Z,102555.41
2023-02-19T21:02:49.795Z,102550.16
2023-02-19T21:05:16.027Z,102550.22
2023-02-19T21:07:42.239Z,102552.00
2023-02-19T21:10:08.556Z,102551.13
2023-02-19T21:12:34.746Z,102543.09
2023-02-19T21:15:00.947Z,102556.59
2023-02-19T21:17:27.167Z,102551.28
2023-02-19T21:19:53.328Z,102552.00
2023-02-19T21:22:19.483Z,102546.09
2023-02-19T21:24:45.685Z,102546.09
2023-02-19T21:27:11.902Z,102547.03
2023-02-19T21:29:38.114Z,102552.44
2023-02-19T21:32:04.423Z,102544.25
2023-02-19T21:34:30.719Z,102539.97
2023-02-19T21:36:56.910Z,102530.31
2023-02-19T21:39:23.132Z,102531.97
2023-02-19T21:41:49.312Z,102521.41
2023-02-19T21:44:15.508Z,102523.88
2023-02-19T21:46:41.711Z,102530.25
2023-02-19T21:49:07.998Z,102528.41
2023-02-19T21:51:34.206Z,102524.91
2023-02-19T21:54:00.353Z,102526.00
2023-02-19T21:56:26.584Z,102523.25
2023-02-19T21:58:52.770Z,102516.88
2023-02-19T22:01:18.962Z,102515.06
2023-02-19T22:03:45.155Z,102507.88
2023-02-19T22:06:11.617Z,102495.69
2023-02-19T22:08:38.012Z,102496.56
2023-02-19T22:11:04.233Z,102496.31
2023-02-19T22:13:30.428Z,102502.06
2023-02-19T22:15:56.583Z,102490.53
2023-02-19T22:18:22.794Z,102489.44
2023-02-19T22:20:49.023Z,102500.75
2023-02-19T22:23:15.252Z,102510.75
2023-02-19T22:25:41.475Z,102508.28
2023-02-19T22:28:07.640Z,102518.94
2023-02-19T22:30:33.837Z,102528.97
2023-02-19T22:33:00.062Z,102531.72
2023-02-19T22:35:26.280Z,102531.81
2023-02-19T22:37:52.505Z,102532.84
2023-02-19T22:40:18.655Z,102530.38
2023-02-19T22:42:44.854Z,102530.50
2023-02-19T22:45:11.072Z,102525.47
2023-02-19T22:47:37.280Z,102524.06
2023-02-19T22:50:03.454Z,102528.63
2023-02-19T22:52:29.615Z,102538.41
2023-02-19T22:54:55.782Z,102532.09
2023-02-19T22:57:22.012Z,102533.88
2023-02-19T22:59:48.203Z,102542.84
2023-02-19T23:02:14.355Z,102537.44
2023-02-19T23:04:40.503Z,102538.47
2023-02-19T23:07:06.669Z,102544.19
2023-02-19T23:09:32.877Z,102529.03
2023-02-19T23:11:59.041Z,102537.22
2023-02-19T23:14:25.210Z,102540.50
2023-02-19T23:16:51.434Z,102543.22
2023-02-19T23:19:17.659Z,102547.97
2023-02-19T23:21:43.918Z,102544.59
2023-02-19T23:24:10.142Z,102546.47
2023-02-19T23:26:36.363Z,102540.22
2023-02-19T23:29:02.592Z,102550.88
2023-02-19T23:31:28.832Z,102550.88
2023-02-19T23:33:55.006Z,102554.16
2023-02-19T23:36:21.172Z,102546.94
2023-02-19T23:38:47.393Z,102546.22
2023-02-19T23:41:13.547Z,102546.00
2023-02-19T23:43:39.723Z,102553.06
2023-02-19T23:46:06.002Z,102562.06
2023-02-19T23:48:32.234Z,102556.72
2023-02-19T23:50:58.399Z,102555.69
2023-02-19T23:53:24.558Z,102551.31
2023-02-19T23:55:50.709Z,102565.56
2023-02-19T23:58:16.905Z,102554.84
